Mitchell City, Louisiana
Current Conditions -  °F | °C
As of 2:53 PM on Monday 24 Nov 2014 (Local Time) from KASD Reporting Station
Clear Clear  
Wind Chill: 70°   Ceiling: Unl
Heat Index: 70°   Visibility: 10mi
Dew Point: 47°   Wind: 9mph
Humidity: 44%   Direction: 330°NNW
Pressure: 29.89"   Gusts: NA
Location:  30.7419°N, 89.8828°W
Report Text: KASD 242053Z AUTO 33008KT 10SM CLR 21/08 A2989 RMK AO2 SLP122 T02110083 53009
Loading
Personal Weather Stations






























Interactive Weather Map New forecast layout! Learn more

10-Day Weather Forecast

Advertisements
Track Severe Weather on mobile